createdAt,value
2019-01-29T00:01:35.314Z,7.70
2019-01-29T00:04:02.739Z,7.55
2019-01-29T00:06:29.615Z,7.30
2019-01-29T00:08:57.674Z,7.37
2019-01-29T00:11:25.553Z,8.03
2019-01-29T00:13:53.624Z,8.25
2019-01-29T00:16:21.730Z,8.03
2019-01-29T00:18:49.734Z,8.23
2019-01-29T00:21:17.628Z,8.18
2019-01-29T00:23:45.518Z,8.25
2019-01-29T00:26:13.769Z,8.70
2019-01-29T00:28:41.654Z,9.73
2019-01-29T00:31:09.557Z,10.10
2019-01-29T00:33:38.921Z,8.53
2019-01-29T00:36:06.930Z,8.20
2019-01-29T00:38:35.125Z,8.30
2019-01-29T00:41:03.226Z,6.72
2019-01-29T00:43:31.658Z,7.58
2019-01-29T00:45:59.643Z,7.85
2019-01-29T00:48:27.660Z,7.30
2019-01-29T00:50:55.650Z,6.62
2019-01-29T00:53:23.754Z,6.37
2019-01-29T00:55:51.036Z,7.17
2019-01-29T00:58:18.994Z,7.42
2019-01-29T01:00:47.306Z,6.83
2019-01-29T01:03:15.513Z,6.67
2019-01-29T01:05:43.514Z,5.92
2019-01-29T01:08:12.923Z,6.20
2019-01-29T01:10:41.110Z,6.40
2019-01-29T01:13:09.110Z,6.65
2019-01-29T01:15:37.105Z,6.30
2019-01-29T01:18:05.302Z,6.42
2019-01-29T01:20:33.331Z,7.70
2019-01-29T01:23:01.613Z,6.33
2019-01-29T01:25:29.874Z,7.20
2019-01-29T01:27:58.330Z,7.53
2019-01-29T01:30:26.398Z,5.60
2019-01-29T01:32:54.282Z,6.65
2019-01-29T01:35:22.277Z,6.75
2019-01-29T01:37:50.269Z,6.65
2019-01-29T01:40:20.921Z,6.12
2019-01-29T01:42:48.942Z,7.72
2019-01-29T01:45:17.032Z,6.03
2019-01-29T01:47:45.151Z,5.60
2019-01-29T01:50:13.269Z,5.22
2019-01-29T01:52:41.375Z,5.65
2019-01-29T01:55:11.954Z,6.60
2019-01-29T01:57:39.960Z,4.80
2019-01-29T02:00:12.783Z,5.78
2019-01-29T02:02:40.871Z,5.70
2019-01-29T02:05:09.089Z,5.78
2019-01-29T02:07:37.846Z,6.47
2019-01-29T02:10:10.198Z,5.80
2019-01-29T02:12:38.818Z,6.92
2019-01-29T02:15:07.077Z,7.05
2019-01-29T02:17:35.179Z,7.70
2019-01-29T02:20:05.446Z,7.30
2019-01-29T02:22:33.467Z,6.22
2019-01-29T02:25:02.089Z,6.17
2019-01-29T02:27:30.089Z,6.83
2019-01-29T02:29:58.186Z,7.67
2019-01-29T02:32:27.235Z,7.70
2019-01-29T02:34:55.366Z,6.80
2019-01-29T02:37:23.986Z,7.22
2019-01-29T02:39:51.951Z,8.28
2019-01-29T02:42:20.317Z,7.85
2019-01-29T02:44:49.838Z,8.63
2019-01-29T02:47:18.016Z,9.00
2019-01-29T02:49:46.235Z,9.43
2019-01-29T02:52:14.238Z,9.05
2019-01-29T02:54:42.226Z,10.23
2019-01-29T02:57:10.449Z,9.00
2019-01-29T02:59:38.332Z,10.80
2019-01-29T03:02:06.306Z,11.28
2019-01-29T03:04:34.815Z,14.80
2019-01-29T03:07:02.805Z,13.85
2019-01-29T03:09:31.150Z,12.68
2019-01-29T03:11:59.758Z,13.88
2019-01-29T03:14:27.742Z,14.95
2019-01-29T03:16:55.965Z,15.80
2019-01-29T03:19:25.308Z,15.10
2019-01-29T03:21:52.451Z,17.65
2019-01-29T03:24:20.939Z,16.55
2019-01-29T03:26:49.313Z,15.90
2019-01-29T03:29:18.051Z,15.83
2019-01-29T03:31:47.083Z,16.27
2019-01-29T03:34:15.071Z,15.75
2019-01-29T03:36:43.241Z,16.23
2019-01-29T03:39:11.714Z,16.32
2019-01-29T03:41:40.418Z,16.70
2019-01-29T03:44:08.990Z,16.97
2019-01-29T03:46:37.581Z,17.62
2019-01-29T03:49:05.856Z,18.27
2019-01-29T03:51:34.539Z,18.32
2019-01-29T03:54:02.934Z,19.30
2019-01-29T03:56:30.819Z,20.17
2019-01-29T03:58:59.174Z,20.05
2019-01-29T04:01:27.642Z,20.75
2019-01-29T04:03:55.773Z,20.75
2019-01-29T04:06:24.146Z,20.17
2019-01-29T04:08:52.664Z,21.00
2019-01-29T04:11:20.679Z,21.42
2019-01-29T04:13:48.591Z,21.70
2019-01-29T04:16:17.103Z,22.05
2019-01-29T04:18:45.086Z,21.35
2019-01-29T04:21:13.558Z,21.93
2019-01-29T04:23:47.463Z,20.50
2019-01-29T04:26:12.766Z,22.80
2019-01-29T04:28:40.650Z,21.85
2019-01-29T04:31:09.273Z,21.52
2019-01-29T04:33:37.799Z,23.98
2019-01-29T04:36:05.263Z,22.55
2019-01-29T04:38:33.155Z,21.00
2019-01-29T04:41:01.527Z,21.95
2019-01-29T04:43:29.958Z,22.90
2019-01-29T04:46:01.583Z,22.40
2019-01-29T04:48:28.991Z,22.90
2019-01-29T04:50:57.680Z,21.93
2019-01-29T04:53:26.030Z,21.75
2019-01-29T04:55:55.921Z,21.35
2019-01-29T04:58:22.827Z,21.12
2019-01-29T05:00:51.189Z,22.27
2019-01-29T05:03:19.477Z,22.85
2019-01-29T05:05:48.358Z,21.50
2019-01-29T05:08:15.921Z,21.48
2019-01-29T05:10:53.827Z,21.35
2019-01-29T05:13:22.096Z,22.10
2019-01-29T05:15:49.757Z,21.82
2019-01-29T05:18:22.650Z,20.70
2019-01-29T05:20:49.914Z,20.55
2019-01-29T05:23:17.077Z,19.55
2019-01-29T05:25:44.516Z,17.98
2019-01-29T05:28:11.967Z,19.02
2019-01-29T05:30:38.890Z,17.90
2019-01-29T05:33:06.186Z,18.82
2019-01-29T05:35:33.225Z,19.15
2019-01-29T05:38:00.655Z,18.23
2019-01-29T05:40:27.574Z,20.45
2019-01-29T05:42:54.485Z,20.70
2019-01-29T05:45:22.405Z,18.77
2019-01-29T05:47:49.526Z,21.50
2019-01-29T05:50:17.854Z,18.25
2019-01-29T05:52:46.065Z,22.05
2019-01-29T05:55:13.539Z,19.65
2019-01-29T05:57:41.555Z,22.52
2019-01-29T06:00:22.111Z,20.37
2019-01-29T06:02:49.150Z,21.80
2019-01-29T06:05:17.571Z,22.67
2019-01-29T06:07:45.706Z,21.33
2019-01-29T06:10:14.127Z,20.48
2019-01-29T06:12:42.111Z,22.75
2019-01-29T06:15:12.610Z,22.13
2019-01-29T06:17:40.605Z,21.33
2019-01-29T06:20:14.249Z,21.40
2019-01-29T06:22:41.289Z,21.48
2019-01-29T06:25:08.399Z,22.45
2019-01-29T06:27:36.390Z,22.30
2019-01-29T06:30:06.208Z,21.55
2019-01-29T06:32:33.198Z,22.70
2019-01-29T06:35:01.304Z,22.40
2019-01-29T06:37:29.189Z,23.77
2019-01-29T06:40:02.482Z,23.42
2019-01-29T06:42:29.514Z,21.25
2019-01-29T06:44:58.581Z,21.42
2019-01-29T06:47:27.054Z,20.75
2019-01-29T06:49:54.956Z,20.50
2019-01-29T06:52:22.951Z,20.32
2019-01-29T06:54:51.242Z,20.27
2019-01-29T06:57:19.243Z,20.70
2019-01-29T06:59:47.134Z,18.25
2019-01-29T07:02:15.197Z,20.32
2019-01-29T07:04:43.250Z,21.20
2019-01-29T07:07:11.301Z,19.20
2019-01-29T07:09:39.690Z,21.77
2019-01-29T07:12:07.610Z,22.45
2019-01-29T07:14:35.558Z,23.15
2019-01-29T07:17:12.957Z,21.52
2019-01-29T07:19:46.948Z,18.90
2019-01-29T07:22:15.202Z,19.42
2019-01-29T07:24:43.417Z,20.20
2019-01-29T07:27:11.766Z,20.85
2019-01-29T07:29:39.694Z,22.15
2019-01-29T07:32:07.815Z,21.15
2019-01-29T07:34:37.933Z,21.10
2019-01-29T07:37:06.244Z,21.30
2019-01-29T07:39:34.383Z,21.30
2019-01-29T07:42:02.411Z,23.47
2019-01-29T07:44:30.402Z,19.55
2019-01-29T07:46:58.499Z,22.25
2019-01-29T07:49:26.510Z,22.00
2019-01-29T07:51:54.573Z,21.20
2019-01-29T07:54:22.506Z,22.50
2019-01-29T07:56:50.661Z,21.80
2019-01-29T07:59:32.538Z,22.62
2019-01-29T08:01:48.977Z,22.05
2019-01-29T08:04:16.882Z,20.57
2019-01-29T08:06:44.870Z,20.23
2019-01-29T08:09:12.857Z,22.22
2019-01-29T08:11:42.639Z,23.67
2019-01-29T08:14:09.668Z,21.73
2019-01-29T08:16:37.457Z,21.62
2019-01-29T08:19:05.809Z,20.60
2019-01-29T08:21:36.543Z,21.45
2019-01-29T08:24:04.536Z,23.60
2019-01-29T08:26:32.521Z,22.20
2019-01-29T08:29:00.509Z,21.02
2019-01-29T08:31:28.526Z,24.40
2019-01-29T08:33:56.961Z,22.98
2019-01-29T08:36:25.260Z,22.65
2019-01-29T08:38:53.258Z,23.18
2019-01-29T08:41:21.242Z,23.95
2019-01-29T08:43:51.546Z,23.15
2019-01-29T08:46:18.623Z,23.12
2019-01-29T08:48:45.518Z,23.45
2019-01-29T08:51:12.526Z,26.85
2019-01-29T08:53:42.915Z,22.90
2019-01-29T08:56:11.129Z,24.00
2019-01-29T08:58:39.159Z,23.92
2019-01-29T09:01:08.779Z,22.17
2019-01-29T09:03:36.777Z,21.25
2019-01-29T09:06:06.865Z,21.15
2019-01-29T09:08:35.618Z,21.05
2019-01-29T09:11:03.986Z,22.10
2019-01-29T09:13:32.174Z,21.48
2019-01-29T09:16:00.786Z,22.37
2019-01-29T09:18:28.039Z,23.27
2019-01-29T09:20:59.114Z,21.85
2019-01-29T09:23:27.526Z,21.15
2019-01-29T09:25:55.808Z,21.10
2019-01-29T09:28:24.390Z,18.32
2019-01-29T09:30:52.054Z,17.65
2019-01-29T09:33:23.608Z,18.65
2019-01-29T09:35:51.806Z,18.23
2019-01-29T09:38:20.302Z,19.15
2019-01-29T09:40:48.805Z,19.70
2019-01-29T09:43:17.434Z,18.25
2019-01-29T09:45:51.189Z,18.37
2019-01-29T09:48:19.103Z,16.77
2019-01-29T09:50:47.378Z,16.45
2019-01-29T09:53:14.466Z,17.15
2019-01-29T09:55:42.567Z,15.40
2019-01-29T09:58:12.046Z,14.70
2019-01-29T10:00:40.298Z,16.70
2019-01-29T10:03:08.218Z,17.15
2019-01-29T10:05:36.522Z,16.95
2019-01-29T10:08:05.617Z,15.83
2019-01-29T10:10:37.185Z,16.20
2019-01-29T10:13:05.285Z,16.55
2019-01-29T10:15:34.380Z,15.18
2019-01-29T10:18:02.893Z,17.45
2019-01-29T10:20:31.035Z,16.55
2019-01-29T10:22:59.161Z,17.50
2019-01-29T10:25:37.083Z,18.20
2019-01-29T10:27:59.003Z,16.27
2019-01-29T10:30:27.994Z,17.87
2019-01-29T10:32:56.250Z,17.27
2019-01-29T10:35:31.202Z,16.80
2019-01-29T10:37:58.454Z,18.02
2019-01-29T10:40:25.958Z,18.15
2019-01-29T10:42:54.872Z,18.05
2019-01-29T10:45:24.629Z,17.00
2019-01-29T10:47:56.801Z,15.05
2019-01-29T10:50:25.859Z,16.70
2019-01-29T10:52:54.843Z,17.27
2019-01-29T10:55:23.044Z,14.83
2019-01-29T10:57:51.490Z,18.07
2019-01-29T11:00:31.388Z,16.95
2019-01-29T11:02:58.498Z,17.50
2019-01-29T11:05:25.484Z,16.55
2019-01-29T11:07:52.651Z,17.95
2019-01-29T11:10:27.249Z,16.67
2019-01-29T11:12:54.146Z,17.25
2019-01-29T11:15:26.543Z,17.37
2019-01-29T11:17:54.655Z,15.25
2019-01-29T11:20:22.878Z,14.18
2019-01-29T11:22:55.581Z,16.00
2019-01-29T11:25:25.588Z,15.93
2019-01-29T11:27:52.694Z,14.80
2019-01-29T11:30:24.162Z,15.65
2019-01-29T11:32:58.174Z,13.60
2019-01-29T11:35:25.400Z,15.65
2019-01-29T11:37:53.518Z,14.45
2019-01-29T11:40:23.281Z,13.95
2019-01-29T11:42:51.614Z,12.40
2019-01-29T11:45:25.530Z,12.50
2019-01-29T11:47:53.551Z,10.05
2019-01-29T11:50:21.711Z,8.88
2019-01-29T11:52:49.846Z,9.10
2019-01-29T11:55:18.806Z,9.68
2019-01-29T11:57:50.119Z,9.45
2019-01-29T12:00:26.785Z,9.45
2019-01-29T12:02:54.675Z,10.88
2019-01-29T12:05:26.704Z,9.65
2019-01-29T12:07:54.674Z,9.45
2019-01-29T12:10:22.865Z,9.45
2019-01-29T12:12:51.302Z,9.23
2019-01-29T12:15:19.678Z,8.90
2019-01-29T12:17:50.361Z,9.50
2019-01-29T12:20:18.478Z,9.73
2019-01-29T12:22:46.888Z,9.45
2019-01-29T12:25:15.295Z,7.87
2019-01-29T12:27:43.230Z,6.28
2019-01-29T12:30:17.268Z,6.92
2019-01-29T12:32:45.394Z,6.30
2019-01-29T12:35:13.567Z,6.25
2019-01-29T12:37:41.571Z,6.33
2019-01-29T12:40:09.802Z,6.92
2019-01-29T12:42:41.292Z,6.20
2019-01-29T12:45:09.707Z,7.05
2019-01-29T12:47:38.181Z,6.85
2019-01-29T12:50:08.197Z,6.55
2019-01-29T12:52:48.758Z,6.35
2019-01-29T12:55:16.819Z,5.47
2019-01-29T12:57:44.741Z,5.55
2019-01-29T13:00:14.651Z,5.45
2019-01-29T13:02:44.177Z,5.35
2019-01-29T13:05:12.403Z,6.83
2019-01-29T13:07:40.522Z,5.97
2019-01-29T13:10:12.971Z,5.65
2019-01-29T13:12:48.374Z,5.20
2019-01-29T13:15:18.818Z,5.42
2019-01-29T13:17:45.914Z,5.70
2019-01-29T13:20:13.014Z,6.10
2019-01-29T13:22:41.126Z,5.70
2019-01-29T13:25:12.271Z,5.45
2019-01-29T13:27:39.611Z,5.10
2019-01-29T13:30:12.030Z,5.40
2019-01-29T13:32:40.785Z,5.33
2019-01-29T13:35:13.134Z,4.58
2019-01-29T13:37:41.129Z,4.53
2019-01-29T13:40:09.494Z,5.05
2019-01-29T13:42:37.398Z,4.55
2019-01-29T13:45:07.415Z,4.55
2019-01-29T13:47:38.610Z,4.72
2019-01-29T13:50:10.742Z,4.40
2019-01-29T13:52:38.960Z,3.75
2019-01-29T13:55:09.548Z,4.00
2019-01-29T13:57:39.403Z,4.12
2019-01-29T14:00:14.590Z,3.35
2019-01-29T14:02:41.643Z,3.10
2019-01-29T14:05:08.784Z,3.37
2019-01-29T14:07:36.761Z,3.90
2019-01-29T14:10:08.154Z,4.20
2019-01-29T14:12:36.238Z,3.65
2019-01-29T14:15:05.922Z,4.00
2019-01-29T14:17:33.815Z,4.70
2019-01-29T14:20:01.950Z,4.60
2019-01-29T14:22:37.089Z,4.10
2019-01-29T14:25:04.594Z,3.22
2019-01-29T14:27:31.590Z,3.77
2019-01-29T14:29:59.893Z,4.17
2019-01-29T14:32:28.066Z,4.30
2019-01-29T14:34:59.782Z,3.75
2019-01-29T14:37:30.097Z,3.70
2019-01-29T14:40:08.050Z,3.00
2019-01-29T14:42:39.401Z,3.65
2019-01-29T14:45:13.083Z,3.58
2019-01-29T14:47:43.806Z,3.10
2019-01-29T14:50:12.971Z,3.65
2019-01-29T14:52:49.002Z,2.67
2019-01-29T14:55:16.385Z,3.30
2019-01-29T14:57:44.003Z,3.75
2019-01-29T15:00:26.425Z,3.60
2019-01-29T15:02:53.794Z,3.70
2019-01-29T15:05:21.326Z,3.27
2019-01-29T15:07:48.678Z,2.98
2019-01-29T15:10:16.594Z,3.42
2019-01-29T15:12:43.598Z,2.95
2019-01-29T15:15:12.486Z,3.30
2019-01-29T15:31:52.206Z,2.95
2019-01-29T15:34:20.213Z,2.60
2019-01-29T15:36:48.341Z,3.47
2019-01-29T15:39:19.072Z,3.50
2019-01-29T15:41:47.054Z,3.35
2019-01-29T15:44:15.226Z,3.20
2019-01-29T15:46:43.230Z,3.80
2019-01-29T15:49:11.534Z,3.77
2019-01-29T15:51:39.632Z,4.70
2019-01-29T15:54:08.196Z,3.42
2019-01-29T15:56:36.122Z,4.25
2019-01-29T15:59:04.462Z,3.67
2019-01-29T16:01:32.554Z,3.70
2019-01-29T16:04:01.462Z,3.67
2019-01-29T16:06:29.554Z,3.65
2019-01-29T16:09:07.076Z,4.62
2019-01-29T16:11:35.727Z,3.33
2019-01-29T16:14:04.052Z,3.95
2019-01-29T16:16:32.373Z,4.20
2019-01-29T16:19:01.984Z,4.40
2019-01-29T16:21:30.773Z,5.00
2019-01-29T16:23:59.133Z,3.90
2019-01-29T16:26:27.470Z,4.17
2019-01-29T16:28:56.922Z,4.33
2019-01-29T16:31:25.718Z,4.40
2019-01-29T16:33:56.874Z,4.25
2019-01-29T16:36:26.278Z,4.47
2019-01-29T16:38:54.413Z,5.17
2019-01-29T16:41:22.917Z,4.05
2019-01-29T16:43:51.187Z,4.60
2019-01-29T16:46:23.504Z,4.85
2019-01-29T16:48:51.959Z,4.95
2019-01-29T16:51:20.215Z,6.45
2019-01-29T16:53:49.126Z,5.47
2019-01-29T16:56:17.259Z,6.05
2019-01-29T16:58:54.490Z,5.90
2019-01-29T17:01:22.743Z,6.83
2019-01-29T17:03:51.202Z,5.47
2019-01-29T17:06:19.266Z,5.97
2019-01-29T17:08:47.409Z,5.67
2019-01-29T17:11:16.629Z,4.85
2019-01-29T17:13:45.061Z,5.42
2019-01-29T17:16:13.557Z,5.25
2019-01-29T17:18:41.449Z,5.80
2019-01-29T17:21:09.589Z,5.50
2019-01-29T17:23:42.188Z,5.65
2019-01-29T17:26:10.026Z,4.30
2019-01-29T17:28:37.693Z,4.62
2019-01-29T17:31:05.331Z,4.65
2019-01-29T17:33:32.230Z,4.97
2019-01-29T17:36:00.878Z,5.00
2019-01-29T17:38:33.585Z,5.92
2019-01-29T17:41:01.481Z,7.00
2019-01-29T17:43:29.525Z,7.78
2019-01-29T17:45:57.406Z,6.45
2019-01-29T17:48:26.049Z,5.62
2019-01-29T17:50:54.386Z,5.80
2019-01-29T17:53:22.741Z,4.67
2019-01-29T17:55:52.146Z,5.30
2019-01-29T17:58:20.386Z,6.50
2019-01-29T18:00:52.765Z,5.92
2019-01-29T18:03:21.209Z,6.60
2019-01-29T18:05:54.224Z,6.25
2019-01-29T18:08:22.605Z,7.00
2019-01-29T18:10:50.886Z,6.67
2019-01-29T18:13:19.703Z,6.35
2019-01-29T18:15:48.464Z,6.33
2019-01-29T18:18:19.089Z,6.65
2019-01-29T18:20:47.305Z,6.20
2019-01-29T18:23:15.298Z,6.45
2019-01-29T18:25:43.617Z,5.33
2019-01-29T18:28:12.015Z,5.55
2019-01-29T18:30:43.137Z,5.75
2019-01-29T18:33:11.835Z,6.70
2019-01-29T18:35:39.917Z,6.80
2019-01-29T18:38:07.925Z,6.00
2019-01-29T18:40:45.274Z,7.20
2019-01-29T18:43:13.054Z,7.20
2019-01-29T18:45:40.312Z,5.83
2019-01-29T18:48:08.685Z,6.05
2019-01-29T18:50:36.833Z,6.30
2019-01-29T18:53:06.106Z,7.40
2019-01-29T18:55:37.425Z,7.42
2019-01-29T18:58:11.903Z,6.53
2019-01-29T19:00:36.065Z,6.62
2019-01-29T19:03:04.965Z,7.03
2019-01-29T19:05:33.321Z,7.10
2019-01-29T19:08:03.178Z,6.53
2019-01-29T19:10:31.657Z,6.75
2019-01-29T19:12:59.911Z,6.87
2019-01-29T19:15:28.018Z,6.60
2019-01-29T19:17:56.113Z,7.33
2019-01-29T19:20:29.205Z,6.30
2019-01-29T19:22:57.725Z,6.35
2019-01-29T19:25:26.076Z,6.60
2019-01-29T19:27:54.689Z,6.60
2019-01-29T19:30:30.591Z,6.60
2019-01-29T19:32:58.112Z,6.33
2019-01-29T19:35:25.878Z,7.00
2019-01-29T19:37:52.870Z,6.92
2019-01-29T19:40:20.861Z,6.75
2019-01-29T19:42:54.557Z,6.90
2019-01-29T19:45:23.685Z,7.53
2019-01-29T19:47:52.425Z,7.25
2019-01-29T19:50:22.573Z,7.12
2019-01-29T19:52:51.362Z,6.70
2019-01-29T19:55:23.076Z,7.45
2019-01-29T19:57:52.530Z,7.80
2019-01-29T20:00:23.309Z,7.28
2019-01-29T20:02:51.989Z,8.13
2019-01-29T20:05:29.613Z,7.05
2019-01-29T20:07:56.853Z,7.75
2019-01-29T20:10:24.377Z,7.33
2019-01-29T20:12:51.616Z,6.72
2019-01-29T20:15:19.549Z,7.62
2019-01-29T20:17:48.512Z,8.93
2019-01-29T20:20:27.109Z,8.00
2019-01-29T20:22:54.876Z,8.15
2019-01-29T20:25:22.686Z,9.73
2019-01-29T20:27:49.827Z,9.00
2019-01-29T20:30:20.754Z,8.00
2019-01-29T20:32:53.427Z,8.13
2019-01-29T20:35:22.325Z,8.45
2019-01-29T20:37:49.740Z,8.50
2019-01-29T20:40:17.253Z,7.87
2019-01-29T20:42:44.697Z,8.55
2019-01-29T20:45:12.601Z,8.30
2019-01-29T20:47:39.888Z,7.95
2019-01-29T20:50:12.207Z,8.13
2019-01-29T20:52:39.265Z,7.80
2019-01-29T20:55:07.702Z,7.10
2019-01-29T20:57:36.284Z,8.05
2019-01-29T21:00:12.035Z,7.40
2019-01-29T21:02:39.441Z,6.85
2019-01-29T21:05:07.959Z,6.45
2019-01-29T21:07:35.391Z,6.53
2019-01-29T21:10:08.639Z,6.42
2019-01-29T21:12:36.725Z,7.37
2019-01-29T21:15:07.182Z,6.55
2019-01-29T21:17:35.466Z,6.37
2019-01-29T21:20:04.465Z,6.20
2019-01-29T21:22:32.882Z,5.90
2019-01-29T21:25:00.907Z,7.20
2019-01-29T21:27:28.921Z,6.40
2019-01-29T21:29:56.947Z,6.92
2019-01-29T21:32:24.983Z,6.03
2019-01-29T21:34:56.322Z,6.17
2019-01-29T21:37:24.218Z,6.33
2019-01-29T21:39:52.750Z,6.12
2019-01-29T21:42:20.945Z,5.53
2019-01-29T21:44:48.855Z,6.08
2019-01-29T21:47:19.557Z,6.30
2019-01-29T21:49:48.920Z,5.33
2019-01-29T21:52:16.125Z,5.20
2019-01-29T21:54:43.082Z,5.83
2019-01-29T21:57:10.390Z,6.05
2019-01-29T21:59:37.302Z,4.75
2019-01-29T22:02:07.535Z,5.20
2019-01-29T22:04:36.443Z,4.92
2019-01-29T22:07:04.878Z,6.85
2019-01-29T22:09:32.771Z,5.42
2019-01-29T22:12:00.674Z,5.33
2019-01-29T22:14:28.749Z,5.22
2019-01-29T22:16:56.974Z,4.80
2019-01-29T22:19:25.273Z,4.65
2019-01-29T22:21:53.562Z,5.55
2019-01-29T22:24:22.018Z,4.87
2019-01-29T22:26:49.270Z,4.90
2019-01-29T22:29:23.104Z,4.50
2019-01-29T22:31:47.234Z,4.53
2019-01-29T22:34:15.318Z,4.40
2019-01-29T22:36:43.547Z,4.47
2019-01-29T22:39:10.581Z,4.72
2019-01-29T22:41:38.503Z,4.85
2019-01-29T22:44:06.574Z,4.75
2019-01-29T22:46:34.834Z,4.80
2019-01-29T22:49:03.268Z,5.10
2019-01-29T22:51:31.526Z,5.30
2019-01-29T22:53:59.825Z,4.90
2019-01-29T22:56:28.315Z,4.50
2019-01-29T22:58:56.564Z,5.12
2019-01-29T23:01:35.918Z,5.28
2019-01-29T23:04:12.799Z,5.30
2019-01-29T23:06:53.870Z,6.08
2019-01-29T23:09:22.163Z,5.65
2019-01-29T23:11:51.766Z,5.20
2019-01-29T23:14:20.186Z,6.28
2019-01-29T23:16:48.114Z,6.37
2019-01-29T23:19:16.786Z,5.85
2019-01-29T23:21:45.474Z,6.65
2019-01-29T23:24:12.831Z,6.30
2019-01-29T23:26:40.851Z,5.67
2019-01-29T23:29:09.496Z,6.55
2019-01-29T23:31:40.751Z,6.45
2019-01-29T23:34:08.570Z,6.10
2019-01-29T23:36:35.865Z,6.80
2019-01-29T23:39:09.354Z,6.85
2019-01-29T23:41:37.537Z,6.25
2019-01-29T23:44:05.071Z,6.33
2019-01-29T23:46:33.986Z,6.25
2019-01-29T23:49:01.101Z,6.87
2019-01-29T23:51:29.118Z,6.83
2019-01-29T23:53:57.482Z,5.90
2019-01-29T23:56:26.066Z,5.90
2019-01-29T23:58:53.726Z,6.85
